ETIK

Illesheim Air Base Heliport

Storck Barracks, Germany
METAR ETIK 101509Z AUTO 26014G19KT 9999 FEW013 BKN022 OVC029 04/02 A3009 RMK AO2 RAB1459E09 SLP204 $
Observed Flight Rules
Dec-10 @ 15:09 UTC (39 minutes ago) Marginal Visual Flight Rules
Wind Visibility Clouds
260° at 14 knots
 Gusting to 19 knots
10,000+ meters
  • Few at 1,300' AGL
  • Broken at 2,200' AGL
  • Overcast at 2,900' AGL
Temperatures Readings
Current 4°C / 39°F
Dewpoint 2°C / 36°F
Humidity 87%
Altimeter 30.09" Hg
Pressure 1020.4 hPa
Elevation 325
METAR ETIK 101509Z AUTO 26014G19KT 9999 FEW013 BKN022 OVC029 04/02 A3009 RMK AO2 RAB1459E09 SLP204 $
Observed Flight Rules
Dec-10 @ 15:09 UTC
(39 minutes ago)
MVFR
Wind Visibility
260° at 14 knots
 Gusting to 19 knots
10,000+ meters
Clouds
  • Few at 1,300' AGL
  • Broken at 2,200' AGL
  • Overcast at 2,900' AGL
Temperature Dewpoint
4°C / 39°F 2°C / 36°F
Humidity Altimeter Pressure
87% 30.09" Hg 1020.4 hPa